Time;durP1;ratioP1;P1;durP2;ratioP2;P2;SDS_P1;SDS_P2;PMS_P1;PMS_P2;Temp;Humidity;BMP_temperature;BMP_pressure;BME280_temperature;BME280_humidity;BME280_pressure;Samples;Min_cycle;Max_cycle;Signal;HPM_P1;HPM_P2
2022/05/31 00:00:32;;;;;;;2.42;1.80;;;;;;;14.57;50.34;98967.56;5086260;28;20056;-72
2022/05/31 00:03:01;;;;;;;2.85;1.38;;;;;;;14.55;50.55;98966.84;5085154;28;20056;-73
2022/05/31 00:05:30;;;;;;;2.63;1.42;;;;;;;14.55;50.75;98957.00;5085628;28;20063;-73
2022/05/31 00:07:58;;;;;;;3.03;1.77;;;;;;;14.53;50.28;98958.09;5086159;28;20056;-73
2022/05/31 00:10:26;;;;;;;3.47;1.55;;;;;;;14.51;50.39;98960.03;5085953;28;20063;-73
2022/05/31 00:12:53;;;;;;;2.55;1.45;;;;;;;14.50;50.80;98963.66;5085947;28;20040;-73
2022/05/31 00:15:22;;;;;;;2.55;1.55;;;;;;;14.39;50.90;98961.84;5086157;28;20063;-72
2022/05/31 00:17:50;;;;;;;3.10;1.50;;;;;;;14.34;50.68;98959.53;5086100;28;20075;-73
2022/05/31 00:20:17;;;;;;;2.67;1.42;;;;;;;14.29;51.20;98960.84;5086403;28;20224;-73
2022/05/31 00:22:47;;;;;;;2.63;1.40;;;;;;;14.27;51.41;98960.97;5086892;28;20056;-73
2022/05/31 00:25:16;;;;;;;5.00;2.08;;;;;;;14.23;51.46;98961.31;5086036;28;20143;-73
2022/05/31 00:27:44;;;;;;;3.60;2.53;;;;;;;14.18;51.54;98955.47;5085580;28;20063;-73
2022/05/31 00:30:13;;;;;;;2.70;1.70;;;;;;;14.15;51.21;98955.72;5085614;28;20056;-73
2022/05/31 00:32:43;;;;;;;3.95;2.00;;;;;;;14.08;51.87;98952.66;5085396;28;20071;-73
2022/05/31 00:35:15;;;;;;;2.33;1.33;;;;;;;14.03;52.28;98960.16;5085158;28;20056;-72
2022/05/31 00:37:43;;;;;;;2.72;1.50;;;;;;;13.93;52.11;98952.00;5085652;28;20056;-73
2022/05/31 00:40:13;;;;;;;2.85;1.92;;;;;;;13.95;52.22;98966.06;5085493;28;20063;-72
2022/05/31 00:42:53;;;;;;;2.20;1.30;;;;;;;13.94;52.71;98968.84;5085500;28;20067;-72
2022/05/31 00:45:22;;;;;;;1.83;1.20;;;;;;;13.74;51.97;98941.88;5084423;28;20057;-73
2022/05/31 00:47:50;;;;;;;3.95;2.10;;;;;;;13.84;51.91;98966.03;5084448;28;20308;-73
2022/05/31 00:50:26;;;;;;;3.20;1.55;;;;;;;13.85;52.85;98964.19;5085406;28;20110;-73
2022/05/31 00:52:58;;;;;;;2.67;1.70;;;;;;;13.85;52.44;98965.06;5085436;28;20053;-73
2022/05/31 00:55:31;;;;;;;1.90;1.30;;;;;;;13.87;52.34;98972.94;5085416;28;20102;-73
2022/05/31 00:58:04;;;;;;;2.60;1.67;;;;;;;13.87;52.22;98965.78;5085004;28;20060;-73
2022/05/31 01:00:31;;;;;;;2.28;1.38;;;;;;;13.79;52.02;98966.38;5085545;28;20041;-72
2022/05/31 01:03:00;;;;;;;2.10;1.40;;;;;;;13.76;51.92;98973.72;5085098;28;20106;-73
2022/05/31 01:05:28;;;;;;;2.08;1.33;;;;;;;13.75;51.75;98975.53;5084953;28;20056;-73
2022/05/31 01:07:55;;;;;;;4.38;1.42;;;;;;;13.71;52.20;98970.56;5085120;28;20346;-72
2022/05/31 01:10:23;;;;;;;2.50;1.23;;;;;;;13.72;51.89;98970.44;5085331;28;20049;-71
2022/05/31 01:12:53;;;;;;;2.72;1.60;;;;;;;13.74;52.16;98970.31;5085958;28;20101;-72
2022/05/31 01:15:21;;;;;;;2.40;1.52;;;;;;;13.63;52.45;98967.59;5089276;28;20074;-72
2022/05/31 01:17:49;;;;;;;2.50;1.55;;;;;;;13.55;53.04;98984.16;5089182;28;20113;-72
2022/05/31 01:20:20;;;;;;;2.42;1.48;;;;;;;13.51;53.38;98971.19;5088786;28;20056;-73
2022/05/31 01:22:51;;;;;;;3.20;1.63;;;;;;;13.50;52.81;98970.31;5089189;28;20243;-73
2022/05/31 01:25:38;;;;;;;2.30;1.40;;;;;;;13.28;53.62;98943.53;5089169;28;20060;-72
2022/05/31 01:28:14;;;;;;;2.95;1.73;;;;;;;13.44;53.24;98971.63;5089111;28;20044;-73
2022/05/31 01:30:44;;;;;;;2.05;1.30;;;;;;;13.43;52.90;98964.59;5088014;28;20083;-73
2022/05/31 01:33:17;;;;;;;3.63;1.55;;;;;;;13.45;52.97;98972.47;5088446;28;20052;-73
2022/05/31 01:35:46;;;;;;;3.08;1.48;;;;;;;13.40;52.93;98969.25;5088652;28;20052;-72
2022/05/31 01:38:16;;;;;;;3.55;1.40;;;;;;;13.33;53.27;98965.34;5088762;28;20186;-73
2022/05/31 01:40:53;;;;;;;2.53;1.40;;;;;;;10.85;53.72;98561.47;5088643;28;20055;-72
2022/05/31 01:43:22;;;;;;;3.47;1.45;;;;;;;13.06;52.53;98926.47;5088470;28;20057;-73
2022/05/31 01:45:55;;;;;;;3.25;2.03;;;;;;;13.39;53.15;98972.88;5088757;28;20112;-73
2022/05/31 01:48:23;;;;;;;2.50;1.40;;;;;;;11.63;52.63;98664.78;5088566;28;20106;-73
2022/05/31 01:50:52;;;;;;;2.30;1.40;;;;;;;12.96;52.93;98912.13;5088185;28;20067;-73
2022/05/31 01:53:19;;;;;;;2.20;1.33;;;;;;;13.29;52.80;98962.06;5088464;28;20048;-73
2022/05/31 01:55:48;;;;;;;2.90;1.85;;;;;;;13.24;53.04;98963.34;5088386;28;20053;-73
2022/05/31 01:58:19;;;;;;;2.50;1.40;;;;;;;13.26;53.46;98986.22;5088282;28;20105;-72
2022/05/31 02:00:47;;;;;;;2.63;1.40;;;;;;;13.25;52.98;98965.91;5088189;28;20048;-73
2022/05/31 02:03:18;;;;;;;2.03;1.25;;;;;;;11.93;53.10;98775.94;5088398;28;20057;-72
2022/05/31 02:05:46;;;;;;;2.45;1.40;;;;;;;13.18;53.14;98961.97;5088310;28;20056;-73
2022/05/31 02:08:17;;;;;;;2.40;1.40;;;;;;;13.16;53.57;98977.22;5088236;28;20056;-72
2022/05/31 02:10:45;;;;;;;2.85;1.90;;;;;;;13.16;53.08;98972.72;5088263;28;20309;-72
2022/05/31 02:13:15;;;;;;;1.80;1.33;;;;;;;12.90;52.95;98933.84;5088160;28;20102;-72
2022/05/31 02:15:43;;;;;;;2.67;1.70;;;;;;;13.21;52.80;98974.22;5088141;28;20094;-73
2022/05/31 02:18:12;;;;;;;2.45;1.42;;;;;;;13.16;52.96;98978.06;5088037;28;20106;-73
2022/05/31 02:20:39;;;;;;;3.13;1.67;;;;;;;13.11;53.35;98984.66;5087548;28;20056;-72
2022/05/31 02:23:07;;;;;;;2.60;1.30;;;;;;;13.12;52.92;98981.91;5087628;28;20064;-72
2022/05/31 02:25:35;;;;;;;2.92;1.65;;;;;;;12.80;53.79;98938.13;5085877;28;20244;-73
2022/05/31 02:28:03;;;;;;;2.20;1.50;;;;;;;12.80;53.11;98954.06;5088003;28;20056;-72
2022/05/31 02:30:30;;;;;;;3.40;1.52;;;;;;;12.73;52.90;98942.16;5088062;28;20106;-73
2022/05/31 02:32:57;;;;;;;3.08;1.60;;;;;;;12.84;53.14;98960.88;5087461;28;20060;-73
2022/05/31 02:35:25;;;;;;;2.78;1.60;;;;;;;13.05;53.13;99007.25;5087816;28;20102;-73
2022/05/31 02:37:53;;;;;;;2.83;1.63;;;;;;;13.04;53.34;99002.88;5087699;28;20060;-72
2022/05/31 02:40:20;;;;;;;2.22;1.48;;;;;;;12.98;53.51;99011.28;5087293;28;20064;-73
2022/05/31 02:42:49;;;;;;;2.70;1.58;;;;;;;13.00;53.10;99003.19;5087602;28;20240;-73
2022/05/31 02:45:16;;;;;;;2.78;1.73;;;;;;;13.06;53.11;99008.94;5087560;28;20114;-73
2022/05/31 02:47:43;;;;;;;3.35;1.27;;;;;;;13.10;52.75;99006.91;5087516;28;20106;-73
2022/05/31 02:50:10;;;;;;;3.85;1.60;;;;;;;13.04;52.99;99005.53;5086544;28;20056;-73
2022/05/31 02:52:37;;;;;;;2.53;1.60;;;;;;;12.38;53.43;98913.59;5087064;28;20056;-73
2022/05/31 02:55:06;;;;;;;3.40;1.95;;;;;;;12.09;53.78;98872.22;5087369;28;20118;-73
2022/05/31 02:57:33;;;;;;;2.83;1.52;;;;;;;12.85;53.93;99005.13;5087170;28;20058;-73
2022/05/31 03:00:02;;;;;;;2.80;1.65;;;;;;;12.86;53.82;99000.66;5087158;28;20083;-73
2022/05/31 03:02:29;;;;;;;2.83;1.83;;;;;;;12.88;53.73;99004.06;5087069;28;20315;-72
2022/05/31 03:04:57;;;;;;;2.28;1.40;;;;;;;12.92;53.62;99008.22;5087238;28;20056;-73
2022/05/31 03:07:24;;;;;;;2.85;1.55;;;;;;;12.84;54.22;99011.41;5087142;28;20106;-72
2022/05/31 03:09:51;;;;;;;2.90;1.42;;;;;;;12.82;53.94;99010.66;5087211;28;20177;-73
2022/05/31 03:12:20;;;;;;;2.97;1.40;;;;;;;12.83;53.82;99005.22;5087048;28;20110;-73
2022/05/31 03:14:53;;;;;;;2.97;1.73;;;;;;;12.75;54.28;99012.91;5086642;28;20053;-72
2022/05/31 03:17:27;;;;;;;3.08;1.80;;;;;;;11.93;54.29;98868.88;5086889;28;20056;-73
2022/05/31 03:19:58;;;;;;;;;;;;;;;12.64;55.61;99004.81;5087258;28;20064;-73
2022/05/31 03:22:30;;;;;;;3.10;1.55;;;;;;;12.64;54.59;99006.63;5086828;28;19940;-73
2022/05/31 03:25:02;;;;;;;5.13;1.48;;;;;;;12.45;54.59;98970.69;5086670;28;20060;-74
2022/05/31 03:27:30;;;;;;;3.30;1.95;;;;;;;12.64;55.08;99014.59;5086351;28;20056;-74
2022/05/31 03:30:00;;;;;;;2.00;1.30;;;;;;;11.86;54.62;98881.72;5086564;28;20304;-74
2022/05/31 03:32:30;;;;;;;2.78;1.60;;;;;;;12.60;55.21;99015.75;5086149;28;20267;-74
2022/05/31 03:34:58;;;;;;;3.08;2.10;;;;;;;12.61;54.56;99018.31;5086323;28;20061;-74
2022/05/31 03:37:25;;;;;;;3.00;2.00;;;;;;;12.61;54.92;99017.47;5086165;28;20056;-73
2022/05/31 03:39:52;;;;;;;2.70;1.80;;;;;;;12.61;54.99;99020.97;5086121;28;20102;-74
2022/05/31 03:42:20;;;;;;;2.67;1.63;;;;;;;12.64;55.26;99019.91;5086342;28;20056;-75
2022/05/31 03:44:48;;;;;;;3.22;1.88;;;;;;;12.69;54.82;99021.31;5084794;28;20083;-74
2022/05/31 03:47:15;;;;;;;2.50;1.80;;;;;;;12.70;54.96;99027.47;5086278;28;20097;-74
2022/05/31 03:49:43;;;;;;;2.85;1.98;;;;;;;12.68;55.41;99027.56;5086147;28;20070;-74
2022/05/31 03:52:10;;;;;;;3.60;1.83;;;;;;;12.68;55.27;99018.75;5086210;28;20060;-74
2022/05/31 03:54:38;;;;;;;2.80;1.90;;;;;;;12.69;55.30;99015.97;5085201;28;20074;-75
2022/05/31 03:57:07;;;;;;;3.80;2.08;;;;;;;12.72;55.44;99022.91;5085809;28;20060;-74
2022/05/31 03:59:38;;;;;;;2.88;1.85;;;;;;;12.76;56.18;99024.38;5086043;28;20368;-74
2022/05/31 04:02:05;;;;;;;5.68;2.13;;;;;;;12.80;55.22;99021.41;5085688;28;20110;-74
2022/05/31 04:04:33;;;;;;;3.58;1.75;;;;;;;11.72;55.17;98901.22;5086017;28;20089;-74
2022/05/31 04:07:03;;;;;;;12.18;10.23;;;;;;;12.53;55.72;98980.78;5085874;28;20060;-75
2022/05/31 04:09:30;;;;;;;10.02;6.53;;;;;;;12.89;55.53;99016.41;5085932;28;20128;-74
2022/05/31 04:11:59;;;;;;;5.82;4.35;;;;;;;12.97;55.29;99014.91;5085548;28;20053;-74
2022/05/31 04:14:26;;;;;;;11.35;6.53;;;;;;;12.92;55.79;99017.03;5085517;28;20076;-74
2022/05/31 04:16:53;;;;;;;11.38;7.38;;;;;;;12.91;55.84;99010.03;5085529;28;20060;-74
2022/05/31 04:19:20;;;;;;;9.02;6.03;;;;;;;12.68;55.70;98966.41;5085724;28;20254;-74
2022/05/31 04:21:47;;;;;;;8.85;5.82;;;;;;;12.99;56.21;99018.31;5085609;28;20056;-74
2022/05/31 04:24:16;;;;;;;5.85;3.83;;;;;;;13.05;56.29;99014.38;5084625;28;20056;-74
2022/05/31 04:26:46;;;;;;;7.75;5.65;;;;;;;12.47;56.39;98926.22;5085566;28;20110;-75
2022/05/31 04:29:14;;;;;;;9.48;4.53;;;;;;;11.20;56.02;98697.78;5085610;28;20048;-75
2022/05/31 04:31:41;;;;;;;5.38;3.60;;;;;;;13.14;55.75;99013.72;5085014;28;20109;-75
2022/05/31 04:34:09;;;;;;;3.80;2.85;;;;;;;13.19;55.68;99008.06;5085455;28;20056;-75
2022/05/31 04:36:36;;;;;;;5.28;3.38;;;;;;;12.92;56.05;98952.34;5085112;28;20056;-75
2022/05/31 04:39:05;;;;;;;5.78;4.35;;;;;;;13.30;55.92;99003.69;5085395;28;20106;-74
2022/05/31 04:41:33;;;;;;;5.10;3.67;;;;;;;13.04;56.17;98962.97;5085121;28;20048;-75
2022/05/31 04:44:04;;;;;;;5.88;3.40;;;;;;;13.37;56.65;99023.56;5085089;28;20064;-75
2022/05/31 04:46:34;;;;;;;3.55;2.42;;;;;;;13.36;56.68;99019.22;5085038;28;20078;-75
2022/05/31 04:49:02;;;;;;;5.30;3.15;;;;;;;13.08;55.95;98975.09;5084716;28;20060;-75
2022/05/31 04:51:32;;;;;;;5.45;2.97;;;;;;;13.36;56.10;99024.53;5085842;28;20124;-75
2022/05/31 04:53:59;;;;;;;4.80;3.03;;;;;;;13.39;56.04;99026.97;5085365;28;20064;-74
2022/05/31 04:56:27;;;;;;;5.85;3.30;;;;;;;13.40;56.75;99030.47;5085508;28;20056;-75
2022/05/31 04:58:56;;;;;;;4.05;2.40;;;;;;;13.41;56.53;99024.19;5085284;28;20082;-74
2022/05/31 05:01:25;;;;;;;6.03;2.95;;;;;;;13.47;56.17;99026.44;5084076;28;20231;-75
2022/05/31 05:03:53;;;;;;;4.90;3.10;;;;;;;13.51;56.74;99021.75;5085456;28;20074;-75
2022/05/31 05:06:22;;;;;;;4.95;3.20;;;;;;;13.51;56.99;99030.59;5085172;28;20060;-75
2022/05/31 05:08:50;;;;;;;3.22;2.35;;;;;;;13.40;57.85;99022.50;5084906;28;20053;-75
2022/05/31 05:11:21;;;;;;;8.30;2.42;;;;;;;13.41;58.86;99026.84;5084856;28;20056;-75
2022/05/31 05:13:48;;;;;;;4.00;2.40;;;;;;;13.43;58.42;99024.97;5085169;28;20062;-75
2022/05/31 05:16:19;;;;;;;4.00;2.33;;;;;;;13.02;58.67;98966.69;5085106;28;20057;-75
2022/05/31 05:18:47;;;;;;;3.63;2.42;;;;;;;13.36;59.04;99048.47;5084753;28;20060;-75
2022/05/31 05:21:16;;;;;;;3.72;2.00;;;;;;;13.44;57.95;99034.66;5084745;28;20067;-75
2022/05/31 05:23:44;;;;;;;5.05;2.03;;;;;;;13.49;57.99;99029.84;5084743;28;20056;-75
2022/05/31 05:26:12;;;;;;;3.08;2.08;;;;;;;13.49;57.73;99027.19;5084693;28;20065;-75
2022/05/31 05:31:28;;;;;;;5.53;2.80;;;;;;;13.42;58.88;99040.09;5084883;28;20354;-75
2022/05/31 05:33:56;;;;;;;5.03;2.95;;;;;;;13.45;58.40;99037.22;5045431;28;20053;-75
2022/05/31 05:36:27;;;;;;;4.68;2.38;;;;;;;12.70;58.38;98910.47;5044636;28;20065;-75
2022/05/31 05:38:54;;;;;;;3.65;2.33;;;;;;;13.43;58.43;99025.81;5044697;28;20072;-75
2022/05/31 05:41:23;;;;;;;3.53;2.60;;;;;;;13.42;59.08;99032.09;5044844;28;20111;-75
2022/05/31 05:43:51;;;;;;;5.80;3.20;;;;;;;13.48;58.04;99031.66;5044651;28;20335;-75
2022/05/31 05:46:21;;;;;;;4.95;2.92;;;;;;;13.57;57.22;99024.81;5045042;28;20061;-75
2022/05/31 05:48:49;;;;;;;4.57;2.70;;;;;;;13.24;58.56;98964.19;5045103;28;20061;-75
2022/05/31 05:51:19;;;;;;;5.25;2.90;;;;;;;13.71;57.43;99031.81;5043897;28;20050;-75
2022/05/31 05:53:47;;;;;;;6.15;3.35;;;;;;;13.79;57.21;99034.75;5044849;28;20061;-75
2022/05/31 05:56:15;;;;;;;8.98;3.92;;;;;;;13.78;57.50;99033.91;5044763;28;20252;-75
2022/05/31 05:58:43;;;;;;;5.45;3.40;;;;;;;13.83;57.54;99035.38;5044931;28;20057;-75
2022/05/31 06:01:15;;;;;;;9.25;3.83;;;;;;;13.82;57.43;99039.88;5048284;28;20100;-75
2022/05/31 06:03:50;;;;;;;6.10;3.85;;;;;;;13.87;57.48;99043.03;5048347;28;20305;-75
2022/05/31 06:06:20;;;;;;;5.30;3.35;;;;;;;13.88;56.75;99052.72;5048094;28;20058;-75
2022/05/31 06:08:52;;;;;;;5.47;3.45;;;;;;;13.93;56.45;99049.72;5048059;28;20312;-75
2022/05/31 06:11:22;;;;;;;6.75;3.55;;;;;;;14.03;55.57;99054.25;5047892;28;20053;-75
2022/05/31 06:13:56;;;;;;;4.57;2.60;;;;;;;14.05;55.45;99057.66;5048065;28;20065;-75
2022/05/31 06:16:27;;;;;;;5.10;2.65;;;;;;;14.10;54.34;99060.00;5046913;28;20257;-75
2022/05/31 06:18:59;;;;;;;3.20;2.13;;;;;;;14.13;54.05;99054.44;5048085;28;20057;-75
2022/05/31 06:21:28;;;;;;;4.03;1.90;;;;;;;14.18;53.95;99054.09;5047885;28;20053;-75
2022/05/31 06:23:57;;;;;;;3.80;1.90;;;;;;;14.23;53.50;99051.94;5047972;28;20057;-75
2022/05/31 06:26:24;;;;;;;2.95;1.92;;;;;;;14.25;53.11;99053.50;5047814;28;20057;-75
2022/05/31 06:28:51;;;;;;;3.45;1.80;;;;;;;13.39;53.04;98911.66;5047462;28;20053;-75
2022/05/31 06:31:18;;;;;;;2.53;1.52;;;;;;;14.35;52.58;99057.19;5047893;28;20049;-75
2022/05/31 06:33:46;;;;;;;5.40;1.80;;;;;;;14.32;52.28;99053.91;5084929;28;20052;-75
2022/05/31 06:36:14;;;;;;;3.40;2.30;;;;;;;14.36;52.44;99050.88;5087259;28;20060;-75
2022/05/31 06:38:43;;;;;;;4.20;2.03;;;;;;;14.17;52.39;99010.59;5086468;28;20053;-75
2022/05/31 06:41:10;;;;;;;4.38;2.50;;;;;;;14.48;52.02;99045.59;5087427;28;20102;-75
2022/05/31 06:43:38;;;;;;;6.25;3.30;;;;;;;14.54;51.61;99048.66;5087138;28;20064;-75
2022/05/31 06:46:05;;;;;;;4.30;2.72;;;;;;;14.58;51.72;99020.81;5086403;28;20082;-75
2022/05/31 06:48:33;;;;;;;3.67;2.00;;;;;;;14.68;51.04;99042.31;5087447;28;20048;-75
2022/05/31 06:51:04;;;;;;;4.55;2.33;;;;;;;14.74;50.04;99028.50;5087094;28;20205;-75
2022/05/31 06:59:05;;;;;;;3.75;1.60;;;;;;;15.14;49.78;99044.94;5087221;28;20082;-75
2022/05/31 07:01:34;;;;;;;5.40;2.50;;;;;;;15.27;49.60;99026.97;5087108;28;20382;-75
2022/05/31 07:04:02;;;;;;;5.97;2.08;;;;;;;15.44;49.33;99011.41;5087070;28;20060;-75
2022/05/31 07:06:31;;;;;;;3.47;1.85;;;;;;;15.60;48.21;99011.88;5086879;28;20075;-75
2022/05/31 07:08:59;;;;;;;2.60;1.70;;;;;;;15.76;48.17;99006.16;5086827;28;20113;-75
2022/05/31 07:11:28;;;;;;;2.35;1.58;;;;;;;15.92;46.55;99007.44;5086531;28;20056;-75
2022/05/31 07:13:56;;;;;;;3.95;1.90;;;;;;;16.17;47.04;99006.25;5086819;28;20040;-75
2022/05/31 07:16:24;;;;;;;2.83;1.85;;;;;;;16.28;45.89;99006.22;5087029;28;20101;-76
2022/05/31 07:18:51;;;;;;;2.75;1.58;;;;;;;16.47;45.05;99007.31;5086755;28;20091;-75
2022/05/31 07:21:19;;;;;;;5.05;1.80;;;;;;;16.61;45.52;98997.16;5085684;28;20052;-75
2022/05/31 07:23:47;;;;;;;2.67;1.67;;;;;;;15.99;45.14;98901.72;5086374;28;20060;-76
2022/05/31 07:26:14;;;;;;;3.58;1.85;;;;;;;16.90;44.46;98999.19;5086605;28;20052;-75
2022/05/31 07:28:43;;;;;;;3.75;2.25;;;;;;;17.03;43.95;98983.75;5086561;28;20312;-75
2022/05/31 07:31:11;;;;;;;2.40;1.45;;;;;;;17.24;44.73;98994.44;5086521;28;20082;-75
2022/05/31 07:33:38;;;;;;;3.22;1.70;;;;;;;17.40;44.04;98989.41;5086007;28;20110;-75
2022/05/31 07:36:07;;;;;;;3.33;2.17;;;;;;;17.21;42.13;98943.81;5086410;28;20061;-75
2022/05/31 07:38:35;;;;;;;3.80;1.73;;;;;;;17.41;42.80;98980.38;5086417;28;20223;-75
2022/05/31 07:41:03;;;;;;;4.07;1.83;;;;;;;17.49;43.09;98985.91;5086227;28;20064;-75
2022/05/31 07:43:31;;;;;;;2.50;1.50;;;;;;;17.73;43.37;98980.19;5086207;28;20083;-75
2022/05/31 07:46:05;;;;;;;5.65;2.30;;;;;;;17.66;41.81;98938.88;5085959;28;20117;-75
2022/05/31 07:48:33;;;;;;;3.65;2.28;;;;;;;18.12;42.59;98982.91;5086029;28;20056;-75
2022/05/31 07:51:01;;;;;;;2.55;1.52;;;;;;;18.15;42.12;98974.59;5086142;28;20109;-75
2022/05/31 07:53:29;;;;;;;2.78;1.60;;;;;;;18.16;42.47;98968.22;5086045;28;20174;-75
2022/05/31 07:55:57;;;;;;;2.28;1.60;;;;;;;18.27;43.00;98974.28;5085957;28;20051;-75
2022/05/31 07:58:35;;;;;;;2.78;1.58;;;;;;;17.83;42.62;98878.34;5085903;28;20102;-76
2022/05/31 08:01:08;;;;;;;5.47;2.45;;;;;;;18.55;41.47;98966.38;5086063;28;20304;-75
2022/05/31 08:03:38;;;;;;;4.03;1.73;;;;;;;18.77;41.82;98957.13;5085884;28;20166;-75
2022/05/31 08:06:07;;;;;;;2.63;1.67;;;;;;;19.01;41.38;98956.63;5085590;28;20185;-75
2022/05/31 08:08:36;;;;;;;5.40;1.80;;;;;;;19.03;41.16;98976.97;5085862;28;20371;-75
2022/05/31 08:11:05;;;;;;;3.28;2.00;;;;;;;18.76;41.63;98915.19;5085643;28;20113;-75
2022/05/31 08:13:32;;;;;;;3.22;2.30;;;;;;;19.08;41.50;98958.56;5085237;28;20052;-75
2022/05/31 08:15:59;;;;;;;2.83;1.60;;;;;;;19.17;40.91;98962.22;5085748;28;20064;-75
2022/05/31 08:18:28;;;;;;;3.45;2.20;;;;;;;19.10;40.54;98961.97;5085764;28;20255;-75
2022/05/31 08:21:00;;;;;;;4.30;1.75;;;;;;;18.97;40.85;98909.59;5085386;28;20366;-75
2022/05/31 08:23:27;;;;;;;3.40;2.05;;;;;;;19.16;41.24;98947.09;5083580;28;20121;-76
2022/05/31 08:25:55;;;;;;;2.95;1.73;;;;;;;19.24;41.62;98944.50;5085710;28;20255;-75
2022/05/31 08:28:23;;;;;;;3.00;1.63;;;;;;;19.27;41.44;98946.88;5085417;28;20060;-75
2022/05/31 08:30:54;;;;;;;6.22;3.15;;;;;;;19.01;40.76;98894.88;5067658;28;20121;-75
2022/05/31 08:33:21;;;;;;;3.45;2.45;;;;;;;19.43;41.47;98944.44;5084933;28;20052;-76
2022/05/31 08:35:50;;;;;;;5.13;2.35;;;;;;;19.63;40.85;98941.63;5085270;28;20362;-74
2022/05/31 08:38:17;;;;;;;5.65;2.60;;;;;;;19.65;41.31;98935.09;5084306;28;20259;-74
2022/05/31 08:40:56;;;;;;;6.13;3.45;;;;;;;19.76;40.46;98944.78;5085377;28;20317;-74
2022/05/31 08:43:38;;;;;;;7.50;3.30;;;;;;;19.61;41.88;98941.78;5085259;28;20350;-75
2022/05/31 08:46:13;;;;;;;6.53;3.95;;;;;;;19.49;42.26;98943.81;5084977;28;20251;-74
2022/05/31 08:48:49;;;;;;;5.47;3.33;;;;;;;18.86;42.76;98827.38;5085046;28;20064;-74
2022/05/31 08:57:11;;;;;;;4.90;3.30;;;;;;;20.10;43.04;98939.56;5024142;28;20191;-75
2022/05/31 08:59:47;;;;;;;4.85;3.05;;;;;;;20.24;42.99;98939.06;5023780;28;20065;-75
2022/05/31 09:02:18;;;;;;;5.25;2.50;;;;;;;20.29;42.71;98936.75;5055733;28;20263;-75
2022/05/31 09:04:49;;;;;;;4.57;2.47;;;;;;;20.40;42.70;98938.34;5085455;28;20243;-75
2022/05/31 09:07:21;;;;;;;2.88;2.13;;;;;;;20.35;42.38;98933.44;5083743;28;20049;-75
2022/05/31 09:09:54;;;;;;;3.08;2.05;;;;;;;20.38;42.50;98937.66;5084815;28;20330;-75
2022/05/31 09:12:30;;;;;;;4.10;2.40;;;;;;;20.31;42.77;98945.50;5084500;28;20052;-75
2022/05/31 09:15:03;;;;;;;3.08;1.98;;;;;;;20.38;42.81;98937.66;5084819;28;20056;-75
2022/05/31 09:17:40;;;;;;;2.92;1.75;;;;;;;20.58;42.45;98923.00;5084416;28;20114;-74
2022/05/31 09:20:12;;;;;;;2.83;2.03;;;;;;;20.88;41.68;98915.41;5083968;28;20057;-75
2022/05/31 09:22:44;;;;;;;8.23;2.45;;;;;;;20.55;40.60;98845.25;5084581;28;20121;-75
2022/05/31 09:25:13;;;;;;;6.50;2.25;;;;;;;21.05;41.23;98923.44;5084497;28;20247;-74
2022/05/31 09:27:44;;;;;;;4.55;1.95;;;;;;;21.14;40.34;98932.41;5084661;28;20060;-75
2022/05/31 09:30:17;;;;;;;2.72;1.92;;;;;;;21.04;40.51;98929.00;5084457;28;20354;-75
2022/05/31 09:32:53;;;;;;;4.22;1.98;;;;;;;20.88;40.49;98935.13;5083993;28;20102;-75
2022/05/31 09:35:35;;;;;;;9.80;2.00;;;;;;;20.98;39.86;98926.91;5087980;28;20120;-74
2022/05/31 09:38:19;;;;;;;3.67;2.10;;;;;;;21.03;38.69;98935.38;5088368;28;20114;-75
2022/05/31 09:40:49;;;;;;;2.83;1.90;;;;;;;21.08;39.03;98933.06;5087993;28;20052;-75
2022/05/31 09:43:24;;;;;;;2.45;1.50;;;;;;;21.15;38.70;98934.09;5087940;28;20110;-75
2022/05/31 09:45:58;;;;;;;3.47;1.60;;;;;;;21.18;38.39;98933.78;5088029;28;20064;-74
2022/05/31 09:48:25;;;;;;;;;;;;;;;21.16;38.20;98929.56;5088923;28;20057;-74
2022/05/31 09:50:59;;;;;;;5.15;2.45;;;;;;;21.24;39.04;98916.13;5088115;28;19920;-75
2022/05/31 09:59:09;;;;;;;2.08;1.60;;;;;;;21.73;36.04;98917.94;5088350;28;20078;-74
2022/05/31 10:01:44;;;;;;;3.25;1.50;;;;;;;21.60;36.36;98914.88;5087868;28;20110;-74
2022/05/31 10:04:14;;;;;;;2.38;1.40;;;;;;;21.59;38.16;98915.03;5087749;28;20060;-75
2022/05/31 10:06:54;;;;;;;4.15;1.55;;;;;;;21.45;36.82;98913.81;5087970;28;20056;-75
2022/05/31 10:09:29;;;;;;;3.35;1.30;;;;;;;21.46;37.47;98912.81;5086995;28;20051;-75
2022/05/31 10:12:26;;;;;;;2.38;1.63;;;;;;;21.45;36.58;98911.97;5087593;28;20113;-75
2022/05/31 10:14:55;;;;;;;1.95;1.35;;;;;;;21.55;38.27;98910.97;5074708;28;20064;-75
2022/05/31 10:17:33;;;;;;;8.15;2.00;;;;;;;21.68;36.83;98903.25;5087793;28;20057;-75
2022/05/31 10:20:19;;;;;;;6.45;1.90;;;;;;;21.59;36.24;98899.69;5087624;28;20098;-75
2022/05/31 10:22:59;;;;;;;2.25;1.50;;;;;;;21.71;36.41;98892.97;5086854;28;20165;-75
2022/05/31 10:25:31;;;;;;;3.45;1.45;;;;;;;21.87;36.86;98894.88;5087772;28;20267;-75
2022/05/31 10:28:01;;;;;;;3.15;1.63;;;;;;;21.95;38.06;98894.03;5087645;28;20063;-74
2022/05/31 10:30:29;;;;;;;2.75;1.58;;;;;;;21.29;37.92;98789.78;5087590;28;20075;-74
2022/05/31 10:32:59;;;;;;;2.92;1.75;;;;;;;22.00;37.70;98889.81;5087119;28;20116;-74
2022/05/31 10:35:30;;;;;;;2.83;1.48;;;;;;;22.08;37.43;98880.88;5087369;28;20125;-74
2022/05/31 10:38:03;;;;;;;4.57;1.52;;;;;;;22.05;37.05;98879.38;5087139;28;20098;-74
2022/05/31 10:40:50;;;;;;;2.17;1.40;;;;;;;21.81;36.51;98843.47;5087565;28;20374;-75
2022/05/31 10:43:38;;;;;;;3.13;1.80;;;;;;;22.07;37.03;98868.41;5086717;28;20110;-74
2022/05/31 10:46:10;;;;;;;3.15;1.67;;;;;;;22.03;37.01;98867.06;5086257;28;20052;-75
2022/05/31 10:48:46;;;;;;;2.40;1.50;;;;;;;21.82;37.26;98827.09;5087239;28;20102;-74
2022/05/31 10:51:32;;;;;;;2.83;1.50;;;;;;;22.28;36.79;98871.44;5087116;28;20110;-74
2022/05/31 10:54:08;;;;;;;3.45;1.73;;;;;;;22.12;37.32;98876.00;5086856;28;20053;-75
2022/05/31 10:56:44;;;;;;;2.58;1.40;;;;;;;22.21;36.83;98893.88;5087325;28;20288;-76
2022/05/31 10:59:18;;;;;;;5.25;1.70;;;;;;;22.31;36.79;98865.69;5087219;28;20108;-76
2022/05/31 11:02:09;;;;;;;2.78;1.63;;;;;;;18.46;36.43;98229.41;5087429;28;20075;-77
2022/05/31 11:04:53;;;;;;;5.22;1.95;;;;;;;22.24;36.93;98864.69;5086579;28;20044;-76
2022/05/31 11:07:33;;;;;;;;;;;;;;;22.23;36.75;98862.16;5087472;28;20100;-76
2022/05/31 11:13:21;;;;;;;2.03;1.30;;;;;;;22.48;36.75;98849.47;5086524;28;20048;-76
2022/05/31 11:15:54;;;;;;;2.92;1.73;;;;;;;22.48;36.58;98865.69;5086703;28;20146;-76
2022/05/31 11:18:48;;;;;;;2.83;1.73;;;;;;;22.56;36.19;98846.78;5086232;28;20102;-76
2022/05/31 11:21:23;;;;;;;;;;;;;;;22.59;36.19;98852.69;5086697;28;20052;-76
2022/05/31 11:24:02;;;;;;;2.60;1.60;;;;;;;22.55;36.18;98856.75;5086466;28;19928;-76
2022/05/31 11:26:44;;;;;;;2.05;1.30;;;;;;;22.59;36.40;98850.00;5085620;28;20178;-76
2022/05/31 11:29:29;;;;;;;3.00;1.80;;;;;;;22.66;36.23;98845.59;5086358;28;20110;-76
2022/05/31 11:32:04;;;;;;;2.50;1.63;;;;;;;22.71;36.68;98831.56;5085044;28;20090;-76
2022/05/31 11:34:45;;;;;;;3.22;2.08;;;;;;;22.74;36.19;98842.00;5086041;28;20114;-73
2022/05/31 11:37:31;;;;;;;2.97;1.92;;;;;;;22.71;36.44;98823.44;5085122;28;20060;-74
2022/05/31 11:40:22;;;;;;;3.53;2.13;;;;;;;22.56;36.56;98981.81;5086421;28;20186;-73
2022/05/31 11:43:19;;;;;;;5.15;1.92;;;;;;;22.25;37.09;98798.88;5083226;28;20072;-73
2022/05/31 11:45:56;;;;;;;2.88;1.83;;;;;;;22.26;37.36;98778.97;5072735;28;20052;-72
2022/05/31 11:48:39;;;;;;;3.40;1.55;;;;;;;22.61;37.18;98812.84;5086006;28;20056;-74
2022/05/31 11:51:30;;;;;;;3.75;2.03;;;;;;;22.72;37.45;98803.53;5086156;28;20351;-74
2022/05/31 11:54:17;;;;;;;3.53;2.10;;;;;;;22.80;37.17;98808.06;5085994;28;20110;-73
2022/05/31 11:56:54;;;;;;;2.95;1.75;;;;;;;22.88;37.59;98805.31;5084841;28;20052;-73
2022/05/31 11:59:27;;;;;;;2.72;1.77;;;;;;;22.92;37.77;98804.78;5085908;28;20110;-73
2022/05/31 12:02:04;;;;;;;4.20;1.83;;;;;;;22.91;37.69;98807.66;5085948;28;20358;-73
2022/05/31 12:04:38;;;;;;;4.25;1.85;;;;;;;22.88;37.80;98799.91;5086238;28;20060;-73
2022/05/31 12:07:13;;;;;;;4.15;1.98;;;;;;;22.89;37.49;98805.13;5085403;28;20102;-73
2022/05/31 12:09:47;;;;;;;3.28;1.83;;;;;;;22.21;37.73;98700.38;5085316;28;20115;-73
2022/05/31 12:12:18;;;;;;;3.97;2.10;;;;;;;23.04;37.71;98797.97;5084980;28;20052;-73
2022/05/31 12:14:50;;;;;;;5.18;2.35;;;;;;;23.16;37.57;98797.56;5085570;28;20182;-73